sensor_id;sensor_type;location;lat;lon;timestamp;P1;durP1;ratioP1;P2;durP2;ratioP2
48941;SDS011;35340;52.378;4.648;2022-08-25T00:01:46;7.60;;;6.90;;
48941;SDS011;35340;52.378;4.648;2022-08-25T00:04:15;8.73;;;7.13;;
48941;SDS011;35340;52.378;4.648;2022-08-25T00:06:42;6.95;;;5.97;;
48941;SDS011;35340;52.378;4.648;2022-08-25T00:09:08;9.85;;;6.38;;
48941;SDS011;35340;52.378;4.648;2022-08-25T00:11:36;7.63;;;6.78;;
48941;SDS011;35340;52.378;4.648;2022-08-25T00:14:05;8.00;;;7.20;;
48941;SDS011;35340;52.378;4.648;2022-08-25T00:19:05;7.70;;;7.00;;
48941;SDS011;35340;52.378;4.648;2022-08-25T00:21:36;7.00;;;6.05;;
48941;SDS011;35340;52.378;4.648;2022-08-25T00:24:03;8.65;;;7.25;;
48941;SDS011;35340;52.378;4.648;2022-08-25T00:26:31;7.63;;;6.13;;
48941;SDS011;35340;52.378;4.648;2022-08-25T00:28:57;9.07;;;7.55;;
48941;SDS011;35340;52.378;4.648;2022-08-25T00:31:22;9.82;;;7.90;;
48941;SDS011;35340;52.378;4.648;2022-08-25T00:33:50;8.93;;;6.78;;
48941;SDS011;35340;52.378;4.648;2022-08-25T00:36:19;7.93;;;6.78;;
48941;SDS011;35340;52.378;4.648;2022-08-25T00:38:46;9.68;;;8.55;;
48941;SDS011;35340;52.378;4.648;2022-08-25T00:41:19;10.23;;;8.30;;
48941;SDS011;35340;52.378;4.648;2022-08-25T00:43:52;11.13;;;7.95;;
48941;SDS011;35340;52.378;4.648;2022-08-25T00:46:26;7.50;;;6.40;;
48941;SDS011;35340;52.378;4.648;2022-08-25T00:49:17;5.50;;;4.97;;
48941;SDS011;35340;52.378;4.648;2022-08-25T00:52:05;8.85;;;6.53;;
48941;SDS011;35340;52.378;4.648;2022-08-25T00:57:00;7.85;;;6.78;;
48941;SDS011;35340;52.378;4.648;2022-08-25T00:59:28;8.23;;;6.53;;
48941;SDS011;35340;52.378;4.648;2022-08-25T01:01:54;8.43;;;6.63;;
48941;SDS011;35340;52.378;4.648;2022-08-25T01:04:23;8.52;;;7.57;;
48941;SDS011;35340;52.378;4.648;2022-08-25T01:06:49;9.60;;;7.40;;
48941;SDS011;35340;52.378;4.648;2022-08-25T01:09:16;7.93;;;7.07;;
48941;SDS011;35340;52.378;4.648;2022-08-25T01:11:44;7.60;;;6.68;;
48941;SDS011;35340;52.378;4.648;2022-08-25T01:14:11;9.75;;;6.80;;
48941;SDS011;35340;52.378;4.648;2022-08-25T01:16:40;9.18;;;7.57;;
48941;SDS011;35340;52.378;4.648;2022-08-25T01:19:07;8.50;;;6.78;;
48941;SDS011;35340;52.378;4.648;2022-08-25T01:24:01;6.88;;;6.18;;
48941;SDS011;35340;52.378;4.648;2022-08-25T01:26:31;8.65;;;6.72;;
48941;SDS011;35340;52.378;4.648;2022-08-25T01:29:03;6.82;;;6.03;;
48941;SDS011;35340;52.378;4.648;2022-08-25T01:32:05;9.40;;;7.50;;
48941;SDS011;35340;52.378;4.648;2022-08-25T01:34:37;8.77;;;6.13;;
48941;SDS011;35340;52.378;4.648;2022-08-25T01:37:01;6.32;;;5.72;;
48941;SDS011;35340;52.378;4.648;2022-08-25T01:39:30;8.10;;;6.43;;
48941;SDS011;35340;52.378;4.648;2022-08-25T01:44:43;8.45;;;6.20;;
48941;SDS011;35340;52.378;4.648;2022-08-25T01:47:14;8.83;;;6.83;;
48941;SDS011;35340;52.378;4.648;2022-08-25T01:49:45;11.95;;;6.78;;
48941;SDS011;35340;52.378;4.648;2022-08-25T01:54:43;10.90;;;7.75;;
48941;SDS011;35340;52.378;4.648;2022-08-25T01:57:08;7.20;;;5.65;;
48941;SDS011;35340;52.378;4.648;2022-08-25T01:59:39;7.63;;;6.82;;
48941;SDS011;35340;52.378;4.648;2022-08-25T02:02:05;7.78;;;5.75;;
48941;SDS011;35340;52.378;4.648;2022-08-25T02:04:34;8.25;;;5.80;;
48941;SDS011;35340;52.378;4.648;2022-08-25T02:07:01;9.27;;;7.60;;
48941;SDS011;35340;52.378;4.648;2022-08-25T02:09:28;8.63;;;6.90;;
48941;SDS011;35340;52.378;4.648;2022-08-25T02:11:56;9.25;;;6.57;;
48941;SDS011;35340;52.378;4.648;2022-08-25T02:14:25;7.55;;;6.70;;
48941;SDS011;35340;52.378;4.648;2022-08-25T02:16:53;7.43;;;6.30;;
48941;SDS011;35340;52.378;4.648;2022-08-25T02:19:27;8.40;;;6.47;;
48941;SDS011;35340;52.378;4.648;2022-08-25T02:24:30;7.70;;;5.57;;
48941;SDS011;35340;52.378;4.648;2022-08-25T02:26:55;6.65;;;5.03;;
48941;SDS011;35340;52.378;4.648;2022-08-25T02:29:22;4.95;;;4.45;;
48941;SDS011;35340;52.378;4.648;2022-08-25T02:31:47;6.38;;;5.07;;
48941;SDS011;35340;52.378;4.648;2022-08-25T02:34:16;6.32;;;5.30;;
48941;SDS011;35340;52.378;4.648;2022-08-25T02:36:42;6.07;;;4.85;;
48941;SDS011;35340;52.378;4.648;2022-08-25T02:39:08;9.73;;;5.55;;
48941;SDS011;35340;52.378;4.648;2022-08-25T02:41:33;6.30;;;4.97;;
48941;SDS011;35340;52.378;4.648;2022-08-25T02:43:59;5.88;;;4.25;;
48941;SDS011;35340;52.378;4.648;2022-08-25T02:46:29;5.60;;;5.05;;
48941;SDS011;35340;52.378;4.648;2022-08-25T02:48:55;6.65;;;5.43;;
48941;SDS011;35340;52.378;4.648;2022-08-25T02:51:26;7.60;;;5.07;;
48941;SDS011;35340;52.378;4.648;2022-08-25T02:53:56;7.05;;;4.80;;
48941;SDS011;35340;52.378;4.648;2022-08-25T02:56:26;7.55;;;5.55;;
48941;SDS011;35340;52.378;4.648;2022-08-25T02:58:52;8.02;;;4.68;;
48941;SDS011;35340;52.378;4.648;2022-08-25T03:01:17;6.57;;;4.97;;
48941;SDS011;35340;52.378;4.648;2022-08-25T03:03:44;5.65;;;4.60;;
48941;SDS011;35340;52.378;4.648;2022-08-25T03:06:20;6.55;;;5.78;;
48941;SDS011;35340;52.378;4.648;2022-08-25T03:08:48;5.88;;;5.28;;
48941;SDS011;35340;52.378;4.648;2022-08-25T03:11:14;6.05;;;4.72;;
48941;SDS011;35340;52.378;4.648;2022-08-25T03:13:43;6.82;;;5.05;;
48941;SDS011;35340;52.378;4.648;2022-08-25T03:16:09;6.25;;;5.22;;
48941;SDS011;35340;52.378;4.648;2022-08-25T03:18:34;6.18;;;4.68;;
48941;SDS011;35340;52.378;4.648;2022-08-25T03:21:00;8.35;;;4.97;;
48941;SDS011;35340;52.378;4.648;2022-08-25T03:23:27;8.30;;;4.93;;
48941;SDS011;35340;52.378;4.648;2022-08-25T03:25:55;5.70;;;4.50;;
48941;SDS011;35340;52.378;4.648;2022-08-25T03:28:39;8.25;;;4.85;;
48941;SDS011;35340;52.378;4.648;2022-08-25T03:31:15;7.63;;;4.53;;
48941;SDS011;35340;52.378;4.648;2022-08-25T03:33:41;6.10;;;4.70;;
48941;SDS011;35340;52.378;4.648;2022-08-25T03:36:10;7.03;;;4.82;;
48941;SDS011;35340;52.378;4.648;2022-08-25T03:38:36;7.18;;;5.40;;
48941;SDS011;35340;52.378;4.648;2022-08-25T03:41:10;6.25;;;5.15;;
48941;SDS011;35340;52.378;4.648;2022-08-25T03:43:40;7.63;;;5.18;;
48941;SDS011;35340;52.378;4.648;2022-08-25T03:46:06;6.78;;;5.10;;
48941;SDS011;35340;52.378;4.648;2022-08-25T03:48:35;5.97;;;5.38;;
48941;SDS011;35340;52.378;4.648;2022-08-25T03:51:03;6.93;;;5.20;;
48941;SDS011;35340;52.378;4.648;2022-08-25T03:53:29;8.35;;;5.20;;
48941;SDS011;35340;52.378;4.648;2022-08-25T03:55:54;7.45;;;4.97;;
48941;SDS011;35340;52.378;4.648;2022-08-25T03:58:21;6.32;;;4.72;;
48941;SDS011;35340;52.378;4.648;2022-08-25T04:00:47;6.20;;;4.78;;
48941;SDS011;35340;52.378;4.648;2022-08-25T04:03:12;8.80;;;4.75;;
48941;SDS011;35340;52.378;4.648;2022-08-25T04:05:38;8.73;;;5.63;;
48941;SDS011;35340;52.378;4.648;2022-08-25T04:08:03;7.25;;;5.60;;
48941;SDS011;35340;52.378;4.648;2022-08-25T04:10:29;7.85;;;5.82;;
48941;SDS011;35340;52.378;4.648;2022-08-25T04:12:55;7.43;;;5.57;;
48941;SDS011;35340;52.378;4.648;2022-08-25T04:15:21;7.28;;;5.90;;
48941;SDS011;35340;52.378;4.648;2022-08-25T04:17:47;9.15;;;5.45;;
48941;SDS011;35340;52.378;4.648;2022-08-25T04:20:16;6.30;;;4.97;;
48941;SDS011;35340;52.378;4.648;2022-08-25T04:22:48;10.95;;;5.80;;
48941;SDS011;35340;52.378;4.648;2022-08-25T04:25:16;7.05;;;5.03;;
48941;SDS011;35340;52.378;4.648;2022-08-25T04:27:41;8.50;;;5.82;;
48941;SDS011;35340;52.378;4.648;2022-08-25T04:30:09;11.02;;;5.82;;
48941;SDS011;35340;52.378;4.648;2022-08-25T04:32:35;8.27;;;5.10;;
48941;SDS011;35340;52.378;4.648;2022-08-25T04:35:00;6.82;;;5.30;;
48941;SDS011;35340;52.378;4.648;2022-08-25T04:37:26;6.40;;;5.15;;
48941;SDS011;35340;52.378;4.648;2022-08-25T04:39:51;9.48;;;5.32;;
48941;SDS011;35340;52.378;4.648;2022-08-25T04:42:20;7.57;;;5.53;;
48941;SDS011;35340;52.378;4.648;2022-08-25T04:44:45;8.38;;;5.43;;
48941;SDS011;35340;52.378;4.648;2022-08-25T04:47:11;10.55;;;5.55;;
48941;SDS011;35340;52.378;4.648;2022-08-25T04:49:37;6.75;;;4.78;;
48941;SDS011;35340;52.378;4.648;2022-08-25T04:52:05;9.65;;;4.63;;
48941;SDS011;35340;52.378;4.648;2022-08-25T04:54:33;7.53;;;5.15;;
48941;SDS011;35340;52.378;4.648;2022-08-25T04:56:59;12.75;;;7.50;;
48941;SDS011;35340;52.378;4.648;2022-08-25T04:59:25;10.38;;;6.65;;
48941;SDS011;35340;52.378;4.648;2022-08-25T05:01:51;14.55;;;6.88;;
48941;SDS011;35340;52.378;4.648;2022-08-25T05:04:19;11.40;;;6.45;;
48941;SDS011;35340;52.378;4.648;2022-08-25T05:06:45;9.45;;;6.80;;
48941;SDS011;35340;52.378;4.648;2022-08-25T05:09:17;39.30;;;12.30;;
48941;SDS011;35340;52.378;4.648;2022-08-25T05:11:46;36.40;;;12.82;;
48941;SDS011;35340;52.378;4.648;2022-08-25T05:14:11;21.65;;;8.68;;
48941;SDS011;35340;52.378;4.648;2022-08-25T05:16:41;17.92;;;6.53;;
48941;SDS011;35340;52.378;4.648;2022-08-25T05:19:08;11.05;;;5.95;;
48941;SDS011;35340;52.378;4.648;2022-08-25T05:21:34;12.30;;;6.18;;
48941;SDS011;35340;52.378;4.648;2022-08-25T05:24:00;10.32;;;6.07;;
48941;SDS011;35340;52.378;4.648;2022-08-25T05:26:28;9.52;;;5.53;;
48941;SDS011;35340;52.378;4.648;2022-08-25T05:28:59;7.95;;;5.22;;
48941;SDS011;35340;52.378;4.648;2022-08-25T05:31:29;8.20;;;4.80;;
48941;SDS011;35340;52.378;4.648;2022-08-25T05:33:55;8.35;;;4.93;;
48941;SDS011;35340;52.378;4.648;2022-08-25T05:36:22;7.18;;;4.85;;
48941;SDS011;35340;52.378;4.648;2022-08-25T05:38:48;7.97;;;4.90;;
48941;SDS011;35340;52.378;4.648;2022-08-25T05:41:18;7.20;;;4.60;;
48941;SDS011;35340;52.378;4.648;2022-08-25T05:43:47;7.38;;;4.30;;
48941;SDS011;35340;52.378;4.648;2022-08-25T05:46:13;6.63;;;4.38;;
48941;SDS011;35340;52.378;4.648;2022-08-25T05:48:40;6.45;;;4.32;;
48941;SDS011;35340;52.378;4.648;2022-08-25T05:51:07;7.45;;;4.35;;
48941;SDS011;35340;52.378;4.648;2022-08-25T05:53:34;7.95;;;4.43;;
48941;SDS011;35340;52.378;4.648;2022-08-25T05:56:01;10.02;;;4.35;;
48941;SDS011;35340;52.378;4.648;2022-08-25T05:58:30;8.60;;;4.40;;
48941;SDS011;35340;52.378;4.648;2022-08-25T06:00:56;6.80;;;4.22;;
48941;SDS011;35340;52.378;4.648;2022-08-25T06:03:22;9.25;;;4.15;;
48941;SDS011;35340;52.378;4.648;2022-08-25T06:05:48;8.35;;;4.05;;
48941;SDS011;35340;52.378;4.648;2022-08-25T06:08:14;11.93;;;4.40;;
48941;SDS011;35340;52.378;4.648;2022-08-25T06:10:40;7.13;;;4.00;;
48941;SDS011;35340;52.378;4.648;2022-08-25T06:13:06;6.75;;;4.25;;
48941;SDS011;35340;52.378;4.648;2022-08-25T06:15:34;10.10;;;4.25;;
48941;SDS011;35340;52.378;4.648;2022-08-25T06:18:00;10.50;;;4.35;;
48941;SDS011;35340;52.378;4.648;2022-08-25T06:20:28;8.32;;;3.92;;
48941;SDS011;35340;52.378;4.648;2022-08-25T06:22:55;10.43;;;4.10;;
48941;SDS011;35340;52.378;4.648;2022-08-25T06:25:22;7.05;;;4.10;;
48941;SDS011;35340;52.378;4.648;2022-08-25T06:27:48;18.85;;;5.93;;
48941;SDS011;35340;52.378;4.648;2022-08-25T06:30:15;17.35;;;7.13;;
48941;SDS011;35340;52.378;4.648;2022-08-25T06:32:43;15.85;;;6.80;;
48941;SDS011;35340;52.378;4.648;2022-08-25T06:35:10;14.07;;;4.85;;
48941;SDS011;35340;52.378;4.648;2022-08-25T06:37:37;9.68;;;4.97;;
48941;SDS011;35340;52.378;4.648;2022-08-25T06:40:05;10.50;;;4.30;;
48941;SDS011;35340;52.378;4.648;2022-08-25T06:42:31;8.43;;;4.75;;
48941;SDS011;35340;52.378;4.648;2022-08-25T06:45:00;7.72;;;4.40;;
48941;SDS011;35340;52.378;4.648;2022-08-25T06:47:26;10.45;;;5.10;;
48941;SDS011;35340;52.378;4.648;2022-08-25T06:49:51;14.35;;;5.00;;
48941;SDS011;35340;52.378;4.648;2022-08-25T06:52:17;8.23;;;5.47;;
48941;SDS011;35340;52.378;4.648;2022-08-25T06:54:43;9.77;;;5.22;;
48941;SDS011;35340;52.378;4.648;2022-08-25T06:57:09;8.55;;;4.95;;
48941;SDS011;35340;52.378;4.648;2022-08-25T06:59:35;9.10;;;5.00;;
48941;SDS011;35340;52.378;4.648;2022-08-25T07:02:04;12.43;;;5.30;;
48941;SDS011;35340;52.378;4.648;2022-08-25T07:04:32;9.50;;;4.95;;
48941;SDS011;35340;52.378;4.648;2022-08-25T07:06:58;9.20;;;5.13;;
48941;SDS011;35340;52.378;4.648;2022-08-25T07:09:24;8.18;;;4.70;;
48941;SDS011;35340;52.378;4.648;2022-08-25T07:11:50;8.30;;;4.53;;
48941;SDS011;35340;52.378;4.648;2022-08-25T07:14:16;6.18;;;4.20;;
48941;SDS011;35340;52.378;4.648;2022-08-25T07:16:43;6.50;;;4.45;;
48941;SDS011;35340;52.378;4.648;2022-08-25T07:19:10;9.40;;;4.40;;
48941;SDS011;35340;52.378;4.648;2022-08-25T07:24:01;9.60;;;4.45;;
48941;SDS011;35340;52.378;4.648;2022-08-25T07:26:31;7.82;;;4.00;;
48941;SDS011;35340;52.378;4.648;2022-08-25T07:29:02;7.13;;;4.07;;
48941;SDS011;35340;52.378;4.648;2022-08-25T07:31:30;6.88;;;4.05;;
48941;SDS011;35340;52.378;4.648;2022-08-25T07:33:55;7.63;;;4.10;;
48941;SDS011;35340;52.378;4.648;2022-08-25T07:36:40;8.20;;;4.07;;
48941;SDS011;35340;52.378;4.648;2022-08-25T07:39:08;8.00;;;4.40;;
48941;SDS011;35340;52.378;4.648;2022-08-25T07:44:01;7.80;;;4.03;;
48941;SDS011;35340;52.378;4.648;2022-08-25T07:46:26;6.38;;;4.07;;
48941;SDS011;35340;52.378;4.648;2022-08-25T07:48:52;5.45;;;3.90;;
48941;SDS011;35340;52.378;4.648;2022-08-25T07:51:20;4.07;;;3.55;;
48941;SDS011;35340;52.378;4.648;2022-08-25T07:53:51;6.18;;;3.75;;
48941;SDS011;35340;52.378;4.648;2022-08-25T07:56:17;5.90;;;3.70;;
48941;SDS011;35340;52.378;4.648;2022-08-25T07:58:43;6.75;;;3.78;;
48941;SDS011;35340;52.378;4.648;2022-08-25T08:01:16;5.93;;;3.78;;
48941;SDS011;35340;52.378;4.648;2022-08-25T08:03:43;6.75;;;3.65;;
48941;SDS011;35340;52.378;4.648;2022-08-25T08:06:10;5.07;;;3.45;;
48941;SDS011;35340;52.378;4.648;2022-08-25T08:08:44;7.63;;;3.42;;
48941;SDS011;35340;52.378;4.648;2022-08-25T08:11:21;5.43;;;3.22;;
48941;SDS011;35340;52.378;4.648;2022-08-25T08:14:01;6.07;;;3.30;;
48941;SDS011;35340;52.378;4.648;2022-08-25T08:16:29;5.00;;;3.80;;
48941;SDS011;35340;52.378;4.648;2022-08-25T08:18:58;6.03;;;3.50;;
48941;SDS011;35340;52.378;4.648;2022-08-25T08:21:25;4.50;;;3.10;;
48941;SDS011;35340;52.378;4.648;2022-08-25T08:23:53;5.00;;;3.10;;
48941;SDS011;35340;52.378;4.648;2022-08-25T08:26:20;3.60;;;3.08;;
48941;SDS011;35340;52.378;4.648;2022-08-25T08:28:49;4.15;;;3.10;;
48941;SDS011;35340;52.378;4.648;2022-08-25T08:31:18;4.75;;;3.45;;
48941;SDS011;35340;52.378;4.648;2022-08-25T08:33:45;4.55;;;3.05;;
48941;SDS011;35340;52.378;4.648;2022-08-25T08:36:15;5.78;;;3.22;;
48941;SDS011;35340;52.378;4.648;2022-08-25T08:38:41;4.30;;;3.08;;
48941;SDS011;35340;52.378;4.648;2022-08-25T08:41:13;5.10;;;2.95;;
48941;SDS011;35340;52.378;4.648;2022-08-25T08:47:06;5.90;;;3.10;;
48941;SDS011;35340;52.378;4.648;2022-08-25T08:52:42;4.88;;;3.05;;
48941;SDS011;35340;52.378;4.648;2022-08-25T08:55:03;3.50;;;2.60;;
48941;SDS011;35340;52.378;4.648;2022-08-25T09:00:05;4.03;;;2.90;;
48941;SDS011;35340;52.378;4.648;2022-08-25T09:05:03;3.85;;;2.50;;
48941;SDS011;35340;52.378;4.648;2022-08-25T09:10:04;5.00;;;2.70;;
48941;SDS011;35340;52.378;4.648;2022-08-25T09:22:55;3.47;;;2.53;;
48941;SDS011;35340;52.378;4.648;2022-08-25T09:28:46;3.22;;;2.22;;
48941;SDS011;35340;52.378;4.648;2022-08-25T09:31:26;4.70;;;2.90;;
48941;SDS011;35340;52.378;4.648;2022-08-25T09:34:00;3.22;;;2.42;;
48941;SDS011;35340;52.378;4.648;2022-08-25T09:36:27;4.03;;;2.70;;
48941;SDS011;35340;52.378;4.648;2022-08-25T09:38:59;3.25;;;2.40;;
48941;SDS011;35340;52.378;4.648;2022-08-25T09:44:01;4.70;;;2.25;;
48941;SDS011;35340;52.378;4.648;2022-08-25T09:46:29;4.03;;;2.60;;
48941;SDS011;35340;52.378;4.648;2022-08-25T09:49:09;3.30;;;2.60;;
48941;SDS011;35340;52.378;4.648;2022-08-25T09:51:37;3.75;;;2.55;;
48941;SDS011;35340;52.378;4.648;2022-08-25T09:54:17;4.00;;;2.45;;
48941;SDS011;35340;52.378;4.648;2022-08-25T09:56:47;3.20;;;2.47;;
48941;SDS011;35340;52.378;4.648;2022-08-25T09:59:22;3.55;;;2.65;;
48941;SDS011;35340;52.378;4.648;2022-08-25T10:01:59;3.60;;;2.42;;
48941;SDS011;35340;52.378;4.648;2022-08-25T10:04:33;5.35;;;2.70;;
48941;SDS011;35340;52.378;4.648;2022-08-25T10:07:01;3.63;;;2.55;;
48941;SDS011;35340;52.378;4.648;2022-08-25T10:09:51;4.38;;;2.50;;
48941;SDS011;35340;52.378;4.648;2022-08-25T10:12:29;3.17;;;2.10;;
48941;SDS011;35340;52.378;4.648;2022-08-25T10:15:21;3.40;;;2.40;;
48941;SDS011;35340;52.378;4.648;2022-08-25T10:17:55;3.20;;;2.30;;
48941;SDS011;35340;52.378;4.648;2022-08-25T10:20:23;2.88;;;2.10;;
48941;SDS011;35340;52.378;4.648;2022-08-25T10:23:04;4.13;;;2.45;;
48941;SDS011;35340;52.378;4.648;2022-08-25T10:25:38;3.22;;;2.30;;
48941;SDS011;35340;52.378;4.648;2022-08-25T10:28:16;4.55;;;2.47;;
48941;SDS011;35340;52.378;4.648;2022-08-25T10:31:06;3.47;;;2.30;;
48941;SDS011;35340;52.378;4.648;2022-08-25T10:41:17;3.03;;;2.22;;
48941;SDS011;35340;52.378;4.648;2022-08-25T10:50:21;4.97;;;1.88;;
48941;SDS011;35340;52.378;4.648;2022-08-25T11:01:09;3.97;;;2.50;;
48941;SDS011;35340;52.378;4.648;2022-08-25T11:03:59;2.47;;;1.92;;
48941;SDS011;35340;52.378;4.648;2022-08-25T11:09:04;4.57;;;2.00;;
48941;SDS011;35340;52.378;4.648;2022-08-25T11:16:44;3.47;;;2.10;;
48941;SDS011;35340;52.378;4.648;2022-08-25T11:19:33;3.35;;;2.30;;
48941;SDS011;35340;52.378;4.648;2022-08-25T11:27:01;4.00;;;2.03;;
48941;SDS011;35340;52.378;4.648;2022-08-25T11:29:30;2.85;;;2.05;;
48941;SDS011;35340;52.378;4.648;2022-08-25T11:32:00;4.43;;;1.98;;
48941;SDS011;35340;52.378;4.648;2022-08-25T11:34:32;2.88;;;1.90;;
48941;SDS011;35340;52.378;4.648;2022-08-25T11:37:02;2.95;;;2.20;;
48941;SDS011;35340;52.378;4.648;2022-08-25T11:50:34;3.05;;;2.10;;
48941;SDS011;35340;52.378;4.648;2022-08-25T12:01:01;3.17;;;1.90;;
48941;SDS011;35340;52.378;4.648;2022-08-25T12:14:13;3.25;;;1.90;;
48941;SDS011;35340;52.378;4.648;2022-08-25T12:17:05;2.40;;;1.85;;
48941;SDS011;35340;52.378;4.648;2022-08-25T12:19:49;2.58;;;1.90;;
48941;SDS011;35340;52.378;4.648;2022-08-25T12:24:53;2.58;;;1.88;;
48941;SDS011;35340;52.378;4.648;2022-08-25T12:32:23;2.60;;;1.80;;
48941;SDS011;35340;52.378;4.648;2022-08-25T12:40:31;2.35;;;1.60;;
48941;SDS011;35340;52.378;4.648;2022-08-25T12:43:02;3.55;;;1.88;;
48941;SDS011;35340;52.378;4.648;2022-08-25T12:45:34;3.28;;;1.92;;
48941;SDS011;35340;52.378;4.648;2022-08-25T12:56:31;2.72;;;1.80;;
48941;SDS011;35340;52.378;4.648;2022-08-25T12:59:22;3.38;;;1.80;;
48941;SDS011;35340;52.378;4.648;2022-08-25T13:07:07;3.10;;;2.00;;
48941;SDS011;35340;52.378;4.648;2022-08-25T13:10:00;2.13;;;1.58;;
48941;SDS011;35340;52.378;4.648;2022-08-25T13:15:10;3.40;;;2.00;;
48941;SDS011;35340;52.378;4.648;2022-08-25T13:17:38;3.13;;;1.90;;
48941;SDS011;35340;52.378;4.648;2022-08-25T13:20:14;2.45;;;1.90;;
48941;SDS011;35340;52.378;4.648;2022-08-25T13:25:18;2.30;;;1.80;;
48941;SDS011;35340;52.378;4.648;2022-08-25T13:27:54;2.70;;;2.00;;
48941;SDS011;35340;52.378;4.648;2022-08-25T13:30:23;2.40;;;1.70;;
48941;SDS011;35340;52.378;4.648;2022-08-25T13:32:49;2.03;;;1.60;;
48941;SDS011;35340;52.378;4.648;2022-08-25T13:35:17;1.90;;;1.70;;
48941;SDS011;35340;52.378;4.648;2022-08-25T13:37:46;2.67;;;1.88;;
48941;SDS011;35340;52.378;4.648;2022-08-25T13:40:21;2.40;;;1.77;;
48941;SDS011;35340;52.378;4.648;2022-08-25T13:42:49;1.73;;;1.63;;
48941;SDS011;35340;52.378;4.648;2022-08-25T13:45:18;2.28;;;1.85;;
48941;SDS011;35340;52.378;4.648;2022-08-25T13:47:46;2.60;;;1.83;;
48941;SDS011;35340;52.378;4.648;2022-08-25T13:50:17;2.38;;;1.92;;
48941;SDS011;35340;52.378;4.648;2022-08-25T13:53:09;2.78;;;1.70;;
48941;SDS011;35340;52.378;4.648;2022-08-25T13:55:38;2.90;;;2.05;;
48941;SDS011;35340;52.378;4.648;2022-08-25T13:58:14;2.28;;;1.75;;
48941;SDS011;35340;52.378;4.648;2022-08-25T14:00:46;2.55;;;1.98;;
48941;SDS011;35340;52.378;4.648;2022-08-25T14:03:31;2.90;;;1.93;;
48941;SDS011;35340;52.378;4.648;2022-08-25T14:08:34;2.13;;;1.90;;
48941;SDS011;35340;52.378;4.648;2022-08-25T14:11:04;2.30;;;1.75;;
48941;SDS011;35340;52.378;4.648;2022-08-25T14:13:38;3.85;;;1.67;;
48941;SDS011;35340;52.378;4.648;2022-08-25T14:16:06;2.95;;;1.70;;
48941;SDS011;35340;52.378;4.648;2022-08-25T14:18:55;2.85;;;2.00;;
48941;SDS011;35340;52.378;4.648;2022-08-25T14:21:26;4.18;;;1.98;;
48941;SDS011;35340;52.378;4.648;2022-08-25T14:23:53;2.83;;;1.80;;
48941;SDS011;35340;52.378;4.648;2022-08-25T14:26:20;3.55;;;2.10;;
48941;SDS011;35340;52.378;4.648;2022-08-25T14:28:46;4.85;;;2.28;;
48941;SDS011;35340;52.378;4.648;2022-08-25T14:31:13;5.25;;;2.50;;
48941;SDS011;35340;52.378;4.648;2022-08-25T14:33:41;5.70;;;2.20;;
48941;SDS011;35340;52.378;4.648;2022-08-25T14:36:12;5.40;;;2.63;;
48941;SDS011;35340;52.378;4.648;2022-08-25T14:38:38;5.55;;;2.70;;
48941;SDS011;35340;52.378;4.648;2022-08-25T14:41:04;4.30;;;2.90;;
48941;SDS011;35340;52.378;4.648;2022-08-25T14:43:30;5.13;;;2.42;;
48941;SDS011;35340;52.378;4.648;2022-08-25T14:45:56;3.33;;;2.38;;
48941;SDS011;35340;52.378;4.648;2022-08-25T14:48:24;4.20;;;2.78;;
48941;SDS011;35340;52.378;4.648;2022-08-25T14:50:54;5.38;;;3.50;;
48941;SDS011;35340;52.378;4.648;2022-08-25T14:53:22;6.93;;;2.97;;
48941;SDS011;35340;52.378;4.648;2022-08-25T14:55:47;4.35;;;2.63;;
48941;SDS011;35340;52.378;4.648;2022-08-25T14:58:17;4.85;;;3.20;;
48941;SDS011;35340;52.378;4.648;2022-08-25T15:00:43;4.82;;;3.35;;
48941;SDS011;35340;52.378;4.648;2022-08-25T15:03:11;3.67;;;2.70;;
48941;SDS011;35340;52.378;4.648;2022-08-25T15:05:38;4.53;;;3.35;;
48941;SDS011;35340;52.378;4.648;2022-08-25T15:08:07;4.43;;;3.13;;
48941;SDS011;35340;52.378;4.648;2022-08-25T15:11:01;5.15;;;3.20;;
48941;SDS011;35340;52.378;4.648;2022-08-25T15:13:27;7.68;;;4.10;;
48941;SDS011;35340;52.378;4.648;2022-08-25T15:15:52;5.43;;;3.45;;
48941;SDS011;35340;52.378;4.648;2022-08-25T15:18:19;5.28;;;3.58;;
48941;SDS011;35340;52.378;4.648;2022-08-25T15:20:45;6.03;;;3.80;;
48941;SDS011;35340;52.378;4.648;2022-08-25T15:23:11;6.68;;;4.32;;
48941;SDS011;35340;52.378;4.648;2022-08-25T15:25:37;4.93;;;4.45;;
48941;SDS011;35340;52.378;4.648;2022-08-25T15:28:05;5.63;;;4.43;;
48941;SDS011;35340;52.378;4.648;2022-08-25T15:30:32;5.97;;;5.38;;
48941;SDS011;35340;52.378;4.648;2022-08-25T15:32:59;9.13;;;6.63;;
48941;SDS011;35340;52.378;4.648;2022-08-25T15:35:24;11.65;;;9.35;;
48941;SDS011;35340;52.378;4.648;2022-08-25T15:37:49;7.32;;;5.13;;
48941;SDS011;35340;52.378;4.648;2022-08-25T15:40:15;6.68;;;3.92;;
48941;SDS011;35340;52.378;4.648;2022-08-25T15:42:40;5.82;;;3.75;;
48941;SDS011;35340;52.378;4.648;2022-08-25T15:45:06;9.20;;;5.43;;
48941;SDS011;35340;52.378;4.648;2022-08-25T15:47:33;5.90;;;4.10;;
48941;SDS011;35340;52.378;4.648;2022-08-25T15:50:01;10.10;;;8.30;;
48941;SDS011;35340;52.378;4.648;2022-08-25T15:52:41;7.87;;;6.47;;
48941;SDS011;35340;52.378;4.648;2022-08-25T15:55:07;8.93;;;6.55;;
48941;SDS011;35340;52.378;4.648;2022-08-25T15:57:34;6.72;;;5.50;;
48941;SDS011;35340;52.378;4.648;2022-08-25T16:00:00;8.75;;;7.85;;
48941;SDS011;35340;52.378;4.648;2022-08-25T16:02:26;12.93;;;9.85;;
48941;SDS011;35340;52.378;4.648;2022-08-25T16:04:52;12.43;;;10.48;;
48941;SDS011;35340;52.378;4.648;2022-08-25T16:07:18;11.68;;;9.15;;
48941;SDS011;35340;52.378;4.648;2022-08-25T16:09:44;9.25;;;8.15;;
48941;SDS011;35340;52.378;4.648;2022-08-25T16:12:11;12.95;;;8.07;;
48941;SDS011;35340;52.378;4.648;2022-08-25T16:14:36;10.10;;;8.90;;
48941;SDS011;35340;52.378;4.648;2022-08-25T16:17:03;12.68;;;10.80;;
48941;SDS011;35340;52.378;4.648;2022-08-25T16:19:29;13.20;;;10.63;;
48941;SDS011;35340;52.378;4.648;2022-08-25T16:21:55;12.60;;;10.15;;
48941;SDS011;35340;52.378;4.648;2022-08-25T16:24:20;13.95;;;12.55;;
48941;SDS011;35340;52.378;4.648;2022-08-25T16:26:46;16.23;;;13.15;;
48941;SDS011;35340;52.378;4.648;2022-08-25T16:29:11;15.10;;;12.40;;
48941;SDS011;35340;52.378;4.648;2022-08-25T16:31:38;15.55;;;12.80;;
48941;SDS011;35340;52.378;4.648;2022-08-25T16:34:04;14.55;;;12.43;;
48941;SDS011;35340;52.378;4.648;2022-08-25T16:36:29;16.25;;;12.15;;
48941;SDS011;35340;52.378;4.648;2022-08-25T16:38:55;17.75;;;13.95;;
48941;SDS011;35340;52.378;4.648;2022-08-25T16:41:25;20.98;;;14.43;;
48941;SDS011;35340;52.378;4.648;2022-08-25T16:43:58;21.83;;;13.43;;
48941;SDS011;35340;52.378;4.648;2022-08-25T16:46:27;14.18;;;12.65;;
48941;SDS011;35340;52.378;4.648;2022-08-25T16:48:52;15.50;;;12.18;;
48941;SDS011;35340;52.378;4.648;2022-08-25T16:51:19;15.80;;;13.70;;
48941;SDS011;35340;52.378;4.648;2022-08-25T16:53:45;17.95;;;13.25;;
48941;SDS011;35340;52.378;4.648;2022-08-25T16:56:31;17.35;;;13.93;;
48941;SDS011;35340;52.378;4.648;2022-08-25T16:58:59;18.08;;;12.50;;
48941;SDS011;35340;52.378;4.648;2022-08-25T17:01:27;13.98;;;10.75;;
48941;SDS011;35340;52.378;4.648;2022-08-25T17:03:55;16.25;;;11.15;;
48941;SDS011;35340;52.378;4.648;2022-08-25T17:06:22;19.17;;;12.45;;
48941;SDS011;35340;52.378;4.648;2022-08-25T17:08:50;19.20;;;12.35;;
48941;SDS011;35340;52.378;4.648;2022-08-25T17:11:21;19.20;;;12.20;;
48941;SDS011;35340;52.378;4.648;2022-08-25T17:13:52;15.70;;;11.05;;
48941;SDS011;35340;52.378;4.648;2022-08-25T17:16:23;13.05;;;10.00;;
48941;SDS011;35340;52.378;4.648;2022-08-25T17:18:52;15.07;;;8.70;;
48941;SDS011;35340;52.378;4.648;2022-08-25T17:21:21;15.50;;;8.68;;
48941;SDS011;35340;52.378;4.648;2022-08-25T17:23:50;15.07;;;9.75;;
48941;SDS011;35340;52.378;4.648;2022-08-25T17:26:18;11.18;;;7.78;;